sensor_id;sensor_type;location;lat;lon;timestamp;temperature;humidity
8172;DHT22;4127;47.908;10.850;2023-04-16T00:01:49;3.60;99.90
8172;DHT22;4127;47.908;10.850;2023-04-16T00:04:16;3.50;99.90
8172;DHT22;4127;47.908;10.850;2023-04-16T00:06:42;3.60;99.90
8172;DHT22;4127;47.908;10.850;2023-04-16T00:09:09;3.50;99.90
8172;DHT22;4127;47.908;10.850;2023-04-16T00:11:36;3.50;99.90
8172;DHT22;4127;47.908;10.850;2023-04-16T00:14:03;3.60;99.90
8172;DHT22;4127;47.908;10.850;2023-04-16T00:16:30;3.50;99.90
8172;DHT22;4127;47.908;10.850;2023-04-16T00:18:57;3.50;99.90
8172;DHT22;4127;47.908;10.850;2023-04-16T00:21:24;3.50;99.90
8172;DHT22;4127;47.908;10.850;2023-04-16T00:23:52;3.60;99.90
8172;DHT22;4127;47.908;10.850;2023-04-16T00:26:19;3.60;99.90
8172;DHT22;4127;47.908;10.850;2023-04-16T00:28:46;3.70;99.90
8172;DHT22;4127;47.908;10.850;2023-04-16T00:31:12;3.60;99.90
8172;DHT22;4127;47.908;10.850;2023-04-16T00:33:39;3.70;99.90
8172;DHT22;4127;47.908;10.850;2023-04-16T00:36:06;3.60;99.90
8172;DHT22;4127;47.908;10.850;2023-04-16T00:38:33;3.60;99.90
8172;DHT22;4127;47.908;10.850;2023-04-16T00:41:00;3.70;99.90
8172;DHT22;4127;47.908;10.850;2023-04-16T00:43:27;3.70;99.90
8172;DHT22;4127;47.908;10.850;2023-04-16T00:45:55;3.70;99.90
8172;DHT22;4127;47.908;10.850;2023-04-16T00:48:23;3.70;99.90
8172;DHT22;4127;47.908;10.850;2023-04-16T00:50:50;3.70;99.90
8172;DHT22;4127;47.908;10.850;2023-04-16T00:53:17;3.70;99.90
8172;DHT22;4127;47.908;10.850;2023-04-16T00:55:44;3.70;99.90
8172;DHT22;4127;47.908;10.850;2023-04-16T00:58:11;3.70;99.90
8172;DHT22;4127;47.908;10.850;2023-04-16T01:00:38;3.80;99.90
8172;DHT22;4127;47.908;10.850;2023-04-16T01:03:04;3.80;99.90
8172;DHT22;4127;47.908;10.850;2023-04-16T01:05:32;3.80;99.90
8172;DHT22;4127;47.908;10.850;2023-04-16T01:07:58;3.70;99.90
8172;DHT22;4127;47.908;10.850;2023-04-16T01:10:28;3.80;99.90
8172;DHT22;4127;47.908;10.850;2023-04-16T01:12:55;3.70;99.90
8172;DHT22;4127;47.908;10.850;2023-04-16T01:15:22;3.80;99.90
8172;DHT22;4127;47.908;10.850;2023-04-16T01:17:49;3.80;99.90
8172;DHT22;4127;47.908;10.850;2023-04-16T01:20:16;3.80;99.90
8172;DHT22;4127;47.908;10.850;2023-04-16T01:22:48;3.80;99.90
8172;DHT22;4127;47.908;10.850;2023-04-16T01:25:14;3.80;99.90
8172;DHT22;4127;47.908;10.850;2023-04-16T01:27:41;3.80;99.90
8172;DHT22;4127;47.908;10.850;2023-04-16T01:30:08;3.80;99.90
8172;DHT22;4127;47.908;10.850;2023-04-16T01:32:35;3.80;99.90
8172;DHT22;4127;47.908;10.850;2023-04-16T01:35:02;3.70;99.90
8172;DHT22;4127;47.908;10.850;2023-04-16T01:37:29;3.70;99.90
8172;DHT22;4127;47.908;10.850;2023-04-16T01:39:56;3.70;99.90
8172;DHT22;4127;47.908;10.850;2023-04-16T01:42:24;3.90;99.90
8172;DHT22;4127;47.908;10.850;2023-04-16T01:44:51;3.70;99.90
8172;DHT22;4127;47.908;10.850;2023-04-16T01:47:18;3.90;99.90
8172;DHT22;4127;47.908;10.850;2023-04-16T01:49:45;3.80;99.90
8172;DHT22;4127;47.908;10.850;2023-04-16T01:52:13;3.70;99.90
8172;DHT22;4127;47.908;10.850;2023-04-16T01:54:40;3.70;99.90
8172;DHT22;4127;47.908;10.850;2023-04-16T01:57:07;3.60;99.90
8172;DHT22;4127;47.908;10.850;2023-04-16T01:59:34;3.70;99.90
8172;DHT22;4127;47.908;10.850;2023-04-16T02:02:09;3.70;99.90
8172;DHT22;4127;47.908;10.850;2023-04-16T02:04:37;3.70;99.90
8172;DHT22;4127;47.908;10.850;2023-04-16T02:07:05;3.80;99.90
8172;DHT22;4127;47.908;10.850;2023-04-16T02:09:39;3.60;99.90
8172;DHT22;4127;47.908;10.850;2023-04-16T02:12:06;3.60;99.90
8172;DHT22;4127;47.908;10.850;2023-04-16T02:14:33;3.70;99.90
8172;DHT22;4127;47.908;10.850;2023-04-16T02:17:00;3.60;99.90
8172;DHT22;4127;47.908;10.850;2023-04-16T02:19:26;3.80;99.90
8172;DHT22;4127;47.908;10.850;2023-04-16T02:21:53;3.60;99.90
8172;DHT22;4127;47.908;10.850;2023-04-16T02:24:20;3.60;99.90
8172;DHT22;4127;47.908;10.850;2023-04-16T02:26:47;3.60;99.90
8172;DHT22;4127;47.908;10.850;2023-04-16T02:29:14;3.60;99.90
8172;DHT22;4127;47.908;10.850;2023-04-16T02:31:42;3.60;99.90
8172;DHT22;4127;47.908;10.850;2023-04-16T02:34:08;3.60;99.90
8172;DHT22;4127;47.908;10.850;2023-04-16T02:36:35;3.60;99.90
8172;DHT22;4127;47.908;10.850;2023-04-16T02:39:02;3.60;99.90
8172;DHT22;4127;47.908;10.850;2023-04-16T02:41:29;3.60;99.90
8172;DHT22;4127;47.908;10.850;2023-04-16T02:43:56;3.50;99.90
8172;DHT22;4127;47.908;10.850;2023-04-16T02:46:23;3.50;99.90
8172;DHT22;4127;47.908;10.850;2023-04-16T02:48:50;3.50;99.90
8172;DHT22;4127;47.908;10.850;2023-04-16T02:51:17;3.50;99.90
8172;DHT22;4127;47.908;10.850;2023-04-16T02:53:43;3.50;99.90
8172;DHT22;4127;47.908;10.850;2023-04-16T02:56:11;3.40;99.90
8172;DHT22;4127;47.908;10.850;2023-04-16T02:58:38;3.40;99.90
8172;DHT22;4127;47.908;10.850;2023-04-16T03:01:05;3.40;99.90
8172;DHT22;4127;47.908;10.850;2023-04-16T03:03:32;3.40;99.90
8172;DHT22;4127;47.908;10.850;2023-04-16T03:05:58;3.40;99.90
8172;DHT22;4127;47.908;10.850;2023-04-16T03:08:25;3.30;99.90
8172;DHT22;4127;47.908;10.850;2023-04-16T03:10:52;3.30;99.90
8172;DHT22;4127;47.908;10.850;2023-04-16T03:13:19;3.30;99.90
8172;DHT22;4127;47.908;10.850;2023-04-16T03:15:49;3.30;99.90
8172;DHT22;4127;47.908;10.850;2023-04-16T03:18:16;3.30;99.90
8172;DHT22;4127;47.908;10.850;2023-04-16T03:20:43;3.20;99.90
8172;DHT22;4127;47.908;10.850;2023-04-16T03:23:10;3.20;99.90
8172;DHT22;4127;47.908;10.850;2023-04-16T03:25:36;3.20;99.90
8172;DHT22;4127;47.908;10.850;2023-04-16T03:28:05;3.20;99.90
8172;DHT22;4127;47.908;10.850;2023-04-16T03:30:32;3.20;99.90
8172;DHT22;4127;47.908;10.850;2023-04-16T03:32:59;3.20;99.90
8172;DHT22;4127;47.908;10.850;2023-04-16T03:35:26;3.10;99.90
8172;DHT22;4127;47.908;10.850;2023-04-16T03:37:53;3.10;99.90
8172;DHT22;4127;47.908;10.850;2023-04-16T03:40:20;3.10;99.90
8172;DHT22;4127;47.908;10.850;2023-04-16T03:42:47;3.20;99.90
8172;DHT22;4127;47.908;10.850;2023-04-16T03:45:13;3.20;99.90
8172;DHT22;4127;47.908;10.850;2023-04-16T03:47:40;3.10;99.90
8172;DHT22;4127;47.908;10.850;2023-04-16T03:50:07;3.10;99.90
8172;DHT22;4127;47.908;10.850;2023-04-16T03:52:34;3.10;99.90
8172;DHT22;4127;47.908;10.850;2023-04-16T03:55:01;3.10;99.90
8172;DHT22;4127;47.908;10.850;2023-04-16T03:57:29;3.10;99.90
8172;DHT22;4127;47.908;10.850;2023-04-16T03:59:56;3.10;99.90
8172;DHT22;4127;47.908;10.850;2023-04-16T04:02:23;3.10;99.90
8172;DHT22;4127;47.908;10.850;2023-04-16T04:04:50;3.10;99.90
8172;DHT22;4127;47.908;10.850;2023-04-16T04:07:17;3.10;99.90
8172;DHT22;4127;47.908;10.850;2023-04-16T04:09:43;3.10;99.90
8172;DHT22;4127;47.908;10.850;2023-04-16T04:12:10;3.10;99.90
8172;DHT22;4127;47.908;10.850;2023-04-16T04:14:37;3.10;99.90
8172;DHT22;4127;47.908;10.850;2023-04-16T04:17:06;3.10;99.90
8172;DHT22;4127;47.908;10.850;2023-04-16T04:19:32;3.10;99.90
8172;DHT22;4127;47.908;10.850;2023-04-16T04:21:59;3.10;99.90
8172;DHT22;4127;47.908;10.850;2023-04-16T04:24:26;3.10;99.90
8172;DHT22;4127;47.908;10.850;2023-04-16T04:26:52;3.10;99.90
8172;DHT22;4127;47.908;10.850;2023-04-16T04:29:19;3.10;99.90
8172;DHT22;4127;47.908;10.850;2023-04-16T04:31:46;3.10;99.90
8172;DHT22;4127;47.908;10.850;2023-04-16T04:34:13;3.10;99.90
8172;DHT22;4127;47.908;10.850;2023-04-16T04:36:40;3.20;99.90
8172;DHT22;4127;47.908;10.850;2023-04-16T04:39:07;3.10;99.90
8172;DHT22;4127;47.908;10.850;2023-04-16T04:41:34;3.10;99.90
8172;DHT22;4127;47.908;10.850;2023-04-16T04:44:01;3.00;99.90
8172;DHT22;4127;47.908;10.850;2023-04-16T04:46:28;3.10;99.90
8172;DHT22;4127;47.908;10.850;2023-04-16T04:48:54;3.10;99.90
8172;DHT22;4127;47.908;10.850;2023-04-16T04:51:21;3.10;99.90
8172;DHT22;4127;47.908;10.850;2023-04-16T04:53:48;3.00;99.90
8172;DHT22;4127;47.908;10.850;2023-04-16T04:56:14;3.10;99.90
8172;DHT22;4127;47.908;10.850;2023-04-16T04:58:41;3.00;99.90
8172;DHT22;4127;47.908;10.850;2023-04-16T05:01:08;3.00;99.90
8172;DHT22;4127;47.908;10.850;2023-04-16T05:03:35;3.00;99.90
8172;DHT22;4127;47.908;10.850;2023-04-16T05:06:02;3.00;99.90
8172;DHT22;4127;47.908;10.850;2023-04-16T05:08:29;3.00;99.90
8172;DHT22;4127;47.908;10.850;2023-04-16T05:10:56;3.00;99.90
8172;DHT22;4127;47.908;10.850;2023-04-16T05:13:22;3.10;99.90
8172;DHT22;4127;47.908;10.850;2023-04-16T05:15:49;3.10;99.90
8172;DHT22;4127;47.908;10.850;2023-04-16T05:18:16;3.10;99.90
8172;DHT22;4127;47.908;10.850;2023-04-16T05:20:42;3.10;99.90
8172;DHT22;4127;47.908;10.850;2023-04-16T06:30:36;3.40;99.90
8172;DHT22;4127;47.908;10.850;2023-04-16T06:33:04;3.40;99.90
8172;DHT22;4127;47.908;10.850;2023-04-16T06:35:31;3.50;99.90
8172;DHT22;4127;47.908;10.850;2023-04-16T06:37:58;3.50;99.90
8172;DHT22;4127;47.908;10.850;2023-04-16T06:40:24;3.70;99.90
8172;DHT22;4127;47.908;10.850;2023-04-16T06:42:52;3.60;99.90
8172;DHT22;4127;47.908;10.850;2023-04-16T06:45:18;3.60;99.90
8172;DHT22;4127;47.908;10.850;2023-04-16T06:47:45;3.60;99.90
8172;DHT22;4127;47.908;10.850;2023-04-16T06:50:13;3.60;99.90
8172;DHT22;4127;47.908;10.850;2023-04-16T06:52:40;3.70;99.90
8172;DHT22;4127;47.908;10.850;2023-04-16T06:55:08;3.60;99.90
8172;DHT22;4127;47.908;10.850;2023-04-16T06:57:35;3.70;99.90
8172;DHT22;4127;47.908;10.850;2023-04-16T07:00:03;3.70;99.90
8172;DHT22;4127;47.908;10.850;2023-04-16T07:02:33;3.70;99.90
8172;DHT22;4127;47.908;10.850;2023-04-16T07:05:01;3.70;99.90
8172;DHT22;4127;47.908;10.850;2023-04-16T07:07:27;3.70;99.90
8172;DHT22;4127;47.908;10.850;2023-04-16T07:09:54;3.80;99.90
8172;DHT22;4127;47.908;10.850;2023-04-16T07:12:21;3.90;99.90
8172;DHT22;4127;47.908;10.850;2023-04-16T07:14:48;3.90;99.90
8172;DHT22;4127;47.908;10.850;2023-04-16T07:17:15;3.80;99.90
8172;DHT22;4127;47.908;10.850;2023-04-16T07:19:42;3.90;99.90
8172;DHT22;4127;47.908;10.850;2023-04-16T07:22:08;3.90;99.90
8172;DHT22;4127;47.908;10.850;2023-04-16T07:24:35;3.90;99.90
8172;DHT22;4127;47.908;10.850;2023-04-16T07:27:02;3.90;99.90
8172;DHT22;4127;47.908;10.850;2023-04-16T07:29:29;3.90;99.90
8172;DHT22;4127;47.908;10.850;2023-04-16T07:31:56;4.00;99.90
8172;DHT22;4127;47.908;10.850;2023-04-16T07:34:23;4.00;99.90
8172;DHT22;4127;47.908;10.850;2023-04-16T07:36:50;4.00;99.90
8172;DHT22;4127;47.908;10.850;2023-04-16T07:39:16;4.20;99.90
8172;DHT22;4127;47.908;10.850;2023-04-16T07:41:43;4.00;99.90
8172;DHT22;4127;47.908;10.850;2023-04-16T07:44:10;4.00;99.90
8172;DHT22;4127;47.908;10.850;2023-04-16T07:46:37;4.00;99.90
8172;DHT22;4127;47.908;10.850;2023-04-16T07:49:12;4.10;99.90
8172;DHT22;4127;47.908;10.850;2023-04-16T07:51:39;4.10;99.90
8172;DHT22;4127;47.908;10.850;2023-04-16T07:54:06;4.20;99.90
8172;DHT22;4127;47.908;10.850;2023-04-16T07:56:33;4.10;99.90
8172;DHT22;4127;47.908;10.850;2023-04-16T07:58:59;4.20;99.90
8172;DHT22;4127;47.908;10.850;2023-04-16T08:01:40;4.20;99.90
8172;DHT22;4127;47.908;10.850;2023-04-16T08:04:07;4.20;99.90
8172;DHT22;4127;47.908;10.850;2023-04-16T08:06:33;4.40;99.90
8172;DHT22;4127;47.908;10.850;2023-04-16T08:09:00;4.30;99.90
8172;DHT22;4127;47.908;10.850;2023-04-16T08:11:27;4.30;99.90
8172;DHT22;4127;47.908;10.850;2023-04-16T08:13:54;4.50;99.90
8172;DHT22;4127;47.908;10.850;2023-04-16T08:16:21;4.40;99.90
8172;DHT22;4127;47.908;10.850;2023-04-16T08:18:48;4.50;99.90
8172;DHT22;4127;47.908;10.850;2023-04-16T08:21:14;4.60;99.90
8172;DHT22;4127;47.908;10.850;2023-04-16T08:23:41;4.50;99.90
8172;DHT22;4127;47.908;10.850;2023-04-16T08:26:08;4.50;99.90
8172;DHT22;4127;47.908;10.850;2023-04-16T08:28:34;4.70;99.90
8172;DHT22;4127;47.908;10.850;2023-04-16T08:31:01;4.60;99.90
8172;DHT22;4127;47.908;10.850;2023-04-16T08:33:28;4.70;99.90
8172;DHT22;4127;47.908;10.850;2023-04-16T08:35:55;4.60;99.90
8172;DHT22;4127;47.908;10.850;2023-04-16T08:38:21;4.60;99.90
8172;DHT22;4127;47.908;10.850;2023-04-16T08:40:48;4.70;99.90
8172;DHT22;4127;47.908;10.850;2023-04-16T08:43:17;4.70;99.90
8172;DHT22;4127;47.908;10.850;2023-04-16T08:45:46;4.70;99.90
8172;DHT22;4127;47.908;10.850;2023-04-16T08:48:13;4.70;99.90
8172;DHT22;4127;47.908;10.850;2023-04-16T08:50:40;4.80;99.90
8172;DHT22;4127;47.908;10.850;2023-04-16T08:53:10;4.80;99.90
8172;DHT22;4127;47.908;10.850;2023-04-16T08:55:45;4.70;99.90
8172;DHT22;4127;47.908;10.850;2023-04-16T08:58:14;4.70;99.90
8172;DHT22;4127;47.908;10.850;2023-04-16T09:00:44;4.70;99.90
8172;DHT22;4127;47.908;10.850;2023-04-16T09:03:12;4.70;99.90
8172;DHT22;4127;47.908;10.850;2023-04-16T09:05:41;4.70;99.90
8172;DHT22;4127;47.908;10.850;2023-04-16T09:08:08;4.80;99.90
8172;DHT22;4127;47.908;10.850;2023-04-16T09:10:34;4.90;99.90
8172;DHT22;4127;47.908;10.850;2023-04-16T09:13:01;4.90;99.90
8172;DHT22;4127;47.908;10.850;2023-04-16T09:15:28;5.00;99.90
8172;DHT22;4127;47.908;10.850;2023-04-16T09:17:55;5.00;99.90
8172;DHT22;4127;47.908;10.850;2023-04-16T09:20:23;4.90;99.90
8172;DHT22;4127;47.908;10.850;2023-04-16T09:22:50;5.00;99.90
8172;DHT22;4127;47.908;10.850;2023-04-16T09:25:19;5.20;99.90
8172;DHT22;4127;47.908;10.850;2023-04-16T09:27:48;5.10;99.90
8172;DHT22;4127;47.908;10.850;2023-04-16T09:30:21;5.00;99.90
8172;DHT22;4127;47.908;10.850;2023-04-16T09:32:49;5.00;99.90
8172;DHT22;4127;47.908;10.850;2023-04-16T09:35:19;5.00;99.90
8172;DHT22;4127;47.908;10.850;2023-04-16T09:37:56;5.10;99.90
8172;DHT22;4127;47.908;10.850;2023-04-16T09:40:24;5.10;99.90
8172;DHT22;4127;47.908;10.850;2023-04-16T09:42:56;5.20;99.90
8172;DHT22;4127;47.908;10.850;2023-04-16T09:45:23;5.30;99.90
8172;DHT22;4127;47.908;10.850;2023-04-16T09:47:50;5.30;99.90
8172;DHT22;4127;47.908;10.850;2023-04-16T09:50:18;5.30;99.90
8172;DHT22;4127;47.908;10.850;2023-04-16T09:52:48;5.40;99.90
8172;DHT22;4127;47.908;10.850;2023-04-16T09:55:21;5.50;99.90
8172;DHT22;4127;47.908;10.850;2023-04-16T09:57:58;5.50;99.90
8172;DHT22;4127;47.908;10.850;2023-04-16T10:00:25;5.50;99.90
8172;DHT22;4127;47.908;10.850;2023-04-16T10:03:02;5.40;99.90
8172;DHT22;4127;47.908;10.850;2023-04-16T10:05:30;5.40;99.90
8172;DHT22;4127;47.908;10.850;2023-04-16T10:07:59;5.40;99.90
8172;DHT22;4127;47.908;10.850;2023-04-16T10:10:28;5.30;99.90
8172;DHT22;4127;47.908;10.850;2023-04-16T10:12:55;5.30;99.90
8172;DHT22;4127;47.908;10.850;2023-04-16T10:15:22;5.30;99.90
8172;DHT22;4127;47.908;10.850;2023-04-16T10:17:50;5.30;99.90
8172;DHT22;4127;47.908;10.850;2023-04-16T10:20:17;5.30;99.90
8172;DHT22;4127;47.908;10.850;2023-04-16T10:22:44;5.30;99.90
8172;DHT22;4127;47.908;10.850;2023-04-16T10:25:12;5.30;99.90
8172;DHT22;4127;47.908;10.850;2023-04-16T10:27:39;5.30;99.90
8172;DHT22;4127;47.908;10.850;2023-04-16T10:30:07;5.40;99.90
8172;DHT22;4127;47.908;10.850;2023-04-16T10:32:35;5.40;99.90
8172;DHT22;4127;47.908;10.850;2023-04-16T10:35:02;5.30;99.90
8172;DHT22;4127;47.908;10.850;2023-04-16T10:37:30;5.30;99.90
8172;DHT22;4127;47.908;10.850;2023-04-16T10:39:58;5.40;99.90
8172;DHT22;4127;47.908;10.850;2023-04-16T10:42:25;5.40;99.90
8172;DHT22;4127;47.908;10.850;2023-04-16T10:44:53;5.40;99.90
8172;DHT22;4127;47.908;10.850;2023-04-16T10:47:23;5.50;99.90
8172;DHT22;4127;47.908;10.850;2023-04-16T10:49:51;5.40;99.90
8172;DHT22;4127;47.908;10.850;2023-04-16T10:52:18;5.40;99.90
8172;DHT22;4127;47.908;10.850;2023-04-16T10:54:46;5.40;99.90
8172;DHT22;4127;47.908;10.850;2023-04-16T10:57:18;5.50;99.90
8172;DHT22;4127;47.908;10.850;2023-04-16T10:59:45;5.50;99.90
8172;DHT22;4127;47.908;10.850;2023-04-16T11:02:16;5.50;99.90
8172;DHT22;4127;47.908;10.850;2023-04-16T11:04:45;5.60;99.90
8172;DHT22;4127;47.908;10.850;2023-04-16T11:07:31;5.60;99.90
8172;DHT22;4127;47.908;10.850;2023-04-16T11:10:11;5.50;99.90
8172;DHT22;4127;47.908;10.850;2023-04-16T11:12:42;5.60;99.90
8172;DHT22;4127;47.908;10.850;2023-04-16T11:15:14;5.60;99.90
8172;DHT22;4127;47.908;10.850;2023-04-16T11:20:20;5.70;99.90
8172;DHT22;4127;47.908;10.850;2023-04-16T11:22:56;5.70;99.90
8172;DHT22;4127;47.908;10.850;2023-04-16T11:25:25;5.80;99.90
8172;DHT22;4127;47.908;10.850;2023-04-16T11:27:52;5.70;99.90
8172;DHT22;4127;47.908;10.850;2023-04-16T11:30:28;5.90;99.90
8172;DHT22;4127;47.908;10.850;2023-04-16T11:32:55;5.90;99.90
8172;DHT22;4127;47.908;10.850;2023-04-16T11:35:22;5.90;99.90
8172;DHT22;4127;47.908;10.850;2023-04-16T11:37:49;5.80;99.90
8172;DHT22;4127;47.908;10.850;2023-04-16T11:40:15;5.90;99.90
8172;DHT22;4127;47.908;10.850;2023-04-16T11:42:43;5.80;99.90
8172;DHT22;4127;47.908;10.850;2023-04-16T11:45:11;6.00;99.90
8172;DHT22;4127;47.908;10.850;2023-04-16T11:47:46;6.00;99.90
8172;DHT22;4127;47.908;10.850;2023-04-16T11:50:21;5.90;99.90
8172;DHT22;4127;47.908;10.850;2023-04-16T11:52:49;5.90;99.90
8172;DHT22;4127;47.908;10.850;2023-04-16T11:55:17;6.00;99.90
8172;DHT22;4127;47.908;10.850;2023-04-16T11:57:44;6.00;99.90
8172;DHT22;4127;47.908;10.850;2023-04-16T12:00:12;5.90;99.90
8172;DHT22;4127;47.908;10.850;2023-04-16T12:02:45;6.00;99.90
8172;DHT22;4127;47.908;10.850;2023-04-16T12:05:31;6.00;99.90
8172;DHT22;4127;47.908;10.850;2023-04-16T12:08:02;6.20;99.90
8172;DHT22;4127;47.908;10.850;2023-04-16T12:10:34;6.10;99.90
8172;DHT22;4127;47.908;10.850;2023-04-16T12:13:13;6.10;99.90
8172;DHT22;4127;47.908;10.850;2023-04-16T12:15:51;6.20;99.90
8172;DHT22;4127;47.908;10.850;2023-04-16T12:18:19;6.30;99.90
8172;DHT22;4127;47.908;10.850;2023-04-16T12:20:47;6.30;99.90
8172;DHT22;4127;47.908;10.850;2023-04-16T12:23:29;6.40;99.90
8172;DHT22;4127;47.908;10.850;2023-04-16T12:25:56;6.50;99.90
8172;DHT22;4127;47.908;10.850;2023-04-16T12:28:33;6.40;99.90
8172;DHT22;4127;47.908;10.850;2023-04-16T12:31:01;6.50;99.90
8172;DHT22;4127;47.908;10.850;2023-04-16T12:33:29;6.40;99.90
8172;DHT22;4127;47.908;10.850;2023-04-16T12:35:56;6.40;99.90
8172;DHT22;4127;47.908;10.850;2023-04-16T12:38:23;6.50;99.90
8172;DHT22;4127;47.908;10.850;2023-04-16T12:40:51;6.60;99.90
8172;DHT22;4127;47.908;10.850;2023-04-16T12:43:19;6.60;99.90
8172;DHT22;4127;47.908;10.850;2023-04-16T12:45:46;6.80;99.90
8172;DHT22;4127;47.908;10.850;2023-04-16T12:48:14;6.70;99.90
8172;DHT22;4127;47.908;10.850;2023-04-16T12:50:40;6.50;99.90
8172;DHT22;4127;47.908;10.850;2023-04-16T12:53:09;6.50;99.90
8172;DHT22;4127;47.908;10.850;2023-04-16T12:55:37;6.50;99.90
8172;DHT22;4127;47.908;10.850;2023-04-16T12:58:03;6.50;99.90
8172;DHT22;4127;47.908;10.850;2023-04-16T13:00:30;6.50;99.90
8172;DHT22;4127;47.908;10.850;2023-04-16T13:02:57;6.70;99.90
8172;DHT22;4127;47.908;10.850;2023-04-16T13:05:24;6.60;99.90
8172;DHT22;4127;47.908;10.850;2023-04-16T13:07:51;6.70;99.90
8172;DHT22;4127;47.908;10.850;2023-04-16T13:10:20;6.70;99.90
8172;DHT22;4127;47.908;10.850;2023-04-16T13:12:46;6.80;99.90
8172;DHT22;4127;47.908;10.850;2023-04-16T13:15:14;6.90;99.90
8172;DHT22;4127;47.908;10.850;2023-04-16T13:17:41;6.80;99.90
8172;DHT22;4127;47.908;10.850;2023-04-16T13:20:08;6.80;99.90
8172;DHT22;4127;47.908;10.850;2023-04-16T13:22:35;6.70;99.90
8172;DHT22;4127;47.908;10.850;2023-04-16T13:25:02;6.70;99.90
8172;DHT22;4127;47.908;10.850;2023-04-16T13:27:29;6.70;99.90
8172;DHT22;4127;47.908;10.850;2023-04-16T13:29:57;6.70;99.90
8172;DHT22;4127;47.908;10.850;2023-04-16T13:32:24;6.50;99.90
8172;DHT22;4127;47.908;10.850;2023-04-16T13:34:51;6.70;99.90
8172;DHT22;4127;47.908;10.850;2023-04-16T13:37:18;6.60;99.90
8172;DHT22;4127;47.908;10.850;2023-04-16T13:39:44;6.70;99.90
8172;DHT22;4127;47.908;10.850;2023-04-16T13:42:11;6.50;99.90
8172;DHT22;4127;47.908;10.850;2023-04-16T13:44:38;6.60;99.90
8172;DHT22;4127;47.908;10.850;2023-04-16T13:47:05;6.50;99.90
8172;DHT22;4127;47.908;10.850;2023-04-16T13:49:32;6.60;99.90
8172;DHT22;4127;47.908;10.850;2023-04-16T13:52:02;6.60;99.90
8172;DHT22;4127;47.908;10.850;2023-04-16T13:54:28;6.50;99.90
8172;DHT22;4127;47.908;10.850;2023-04-16T13:56:55;6.50;99.90
8172;DHT22;4127;47.908;10.850;2023-04-16T13:59:22;6.50;99.90
8172;DHT22;4127;47.908;10.850;2023-04-16T14:01:50;6.40;99.90
8172;DHT22;4127;47.908;10.850;2023-04-16T14:04:16;6.40;99.90
8172;DHT22;4127;47.908;10.850;2023-04-16T14:06:43;6.50;99.90
8172;DHT22;4127;47.908;10.850;2023-04-16T14:09:10;6.50;99.90
8172;DHT22;4127;47.908;10.850;2023-04-16T14:11:37;6.70;99.90
8172;DHT22;4127;47.908;10.850;2023-04-16T14:14:04;6.60;99.90
8172;DHT22;4127;47.908;10.850;2023-04-16T14:16:31;6.50;99.90
8172;DHT22;4127;47.908;10.850;2023-04-16T14:18:58;6.60;99.90
8172;DHT22;4127;47.908;10.850;2023-04-16T14:21:25;6.70;99.90
8172;DHT22;4127;47.908;10.850;2023-04-16T14:23:52;6.70;99.90
8172;DHT22;4127;47.908;10.850;2023-04-16T14:26:19;6.80;99.90
8172;DHT22;4127;47.908;10.850;2023-04-16T14:28:46;6.80;99.90
8172;DHT22;4127;47.908;10.850;2023-04-16T14:31:13;6.70;99.90
8172;DHT22;4127;47.908;10.850;2023-04-16T14:33:40;6.70;99.90
8172;DHT22;4127;47.908;10.850;2023-04-16T14:36:07;6.70;99.90
8172;DHT22;4127;47.908;10.850;2023-04-16T14:38:34;6.70;99.90
8172;DHT22;4127;47.908;10.850;2023-04-16T14:41:01;6.80;99.90
8172;DHT22;4127;47.908;10.850;2023-04-16T14:43:27;6.80;99.90
8172;DHT22;4127;47.908;10.850;2023-04-16T14:45:55;6.90;99.90
8172;DHT22;4127;47.908;10.850;2023-04-16T14:48:24;6.90;99.90
8172;DHT22;4127;47.908;10.850;2023-04-16T14:50:50;6.90;99.90
8172;DHT22;4127;47.908;10.850;2023-04-16T14:53:18;7.00;99.90
8172;DHT22;4127;47.908;10.850;2023-04-16T14:55:45;7.10;99.90
8172;DHT22;4127;47.908;10.850;2023-04-16T14:58:12;7.00;99.90
8172;DHT22;4127;47.908;10.850;2023-04-16T15:00:39;7.00;99.90
8172;DHT22;4127;47.908;10.850;2023-04-16T15:03:05;6.90;99.90
8172;DHT22;4127;47.908;10.850;2023-04-16T15:05:34;6.80;99.90
8172;DHT22;4127;47.908;10.850;2023-04-16T15:08:01;6.70;99.90
8172;DHT22;4127;47.908;10.850;2023-04-16T15:10:29;6.70;99.90
8172;DHT22;4127;47.908;10.850;2023-04-16T15:12:56;6.70;99.90
8172;DHT22;4127;47.908;10.850;2023-04-16T15:15:22;6.70;99.90
8172;DHT22;4127;47.908;10.850;2023-04-16T15:17:49;6.60;99.90
8172;DHT22;4127;47.908;10.850;2023-04-16T15:20:17;6.60;99.90
8172;DHT22;4127;47.908;10.850;2023-04-16T15:22:44;6.70;99.90
8172;DHT22;4127;47.908;10.850;2023-04-16T15:25:11;6.60;99.90
8172;DHT22;4127;47.908;10.850;2023-04-16T15:27:39;6.60;99.90
8172;DHT22;4127;47.908;10.850;2023-04-16T15:30:06;6.70;99.90
8172;DHT22;4127;47.908;10.850;2023-04-16T15:32:33;6.70;99.90
8172;DHT22;4127;47.908;10.850;2023-04-16T15:35:01;6.70;99.90
8172;DHT22;4127;47.908;10.850;2023-04-16T15:37:28;6.70;99.90
8172;DHT22;4127;47.908;10.850;2023-04-16T15:39:55;6.70;99.90
8172;DHT22;4127;47.908;10.850;2023-04-16T15:42:22;6.60;99.90
8172;DHT22;4127;47.908;10.850;2023-04-16T15:44:49;6.70;99.90
8172;DHT22;4127;47.908;10.850;2023-04-16T15:47:16;6.70;99.90
8172;DHT22;4127;47.908;10.850;2023-04-16T15:49:43;6.70;99.90
8172;DHT22;4127;47.908;10.850;2023-04-16T15:52:10;6.80;99.90
8172;DHT22;4127;47.908;10.850;2023-04-16T15:54:37;6.80;99.90
8172;DHT22;4127;47.908;10.850;2023-04-16T15:57:04;6.70;99.90
8172;DHT22;4127;47.908;10.850;2023-04-16T15:59:31;6.60;99.90
8172;DHT22;4127;47.908;10.850;2023-04-16T16:01:58;6.70;99.90
8172;DHT22;4127;47.908;10.850;2023-04-16T16:04:25;6.70;99.90
8172;DHT22;4127;47.908;10.850;2023-04-16T16:06:53;6.70;99.90
8172;DHT22;4127;47.908;10.850;2023-04-16T16:09:21;6.70;99.90
8172;DHT22;4127;47.908;10.850;2023-04-16T16:11:52;6.70;99.90
8172;DHT22;4127;47.908;10.850;2023-04-16T16:14:23;6.60;99.90
8172;DHT22;4127;47.908;10.850;2023-04-16T16:16:50;6.80;99.90
8172;DHT22;4127;47.908;10.850;2023-04-16T16:19:16;6.70;99.90
8172;DHT22;4127;47.908;10.850;2023-04-16T16:21:43;6.70;99.90
8172;DHT22;4127;47.908;10.850;2023-04-16T16:24:10;6.60;99.90
8172;DHT22;4127;47.908;10.850;2023-04-16T16:26:37;6.60;99.90
8172;DHT22;4127;47.908;10.850;2023-04-16T16:29:04;6.70;99.90
8172;DHT22;4127;47.908;10.850;2023-04-16T16:31:31;6.70;99.90
8172;DHT22;4127;47.908;10.850;2023-04-16T16:33:57;6.70;99.90
8172;DHT22;4127;47.908;10.850;2023-04-16T16:36:24;6.70;99.90
8172;DHT22;4127;47.908;10.850;2023-04-16T16:38:52;6.70;99.90
8172;DHT22;4127;47.908;10.850;2023-04-16T16:41:18;6.70;99.90
8172;DHT22;4127;47.908;10.850;2023-04-16T16:43:46;6.60;99.90
8172;DHT22;4127;47.908;10.850;2023-04-16T16:46:12;6.70;99.90
8172;DHT22;4127;47.908;10.850;2023-04-16T16:48:39;6.60;99.90
8172;DHT22;4127;47.908;10.850;2023-04-16T16:51:08;6.80;99.90
8172;DHT22;4127;47.908;10.850;2023-04-16T16:53:36;6.80;99.90
8172;DHT22;4127;47.908;10.850;2023-04-16T16:56:02;6.70;99.90
8172;DHT22;4127;47.908;10.850;2023-04-16T16:58:29;6.70;99.90
8172;DHT22;4127;47.908;10.850;2023-04-16T17:00:56;6.60;99.90
8172;DHT22;4127;47.908;10.850;2023-04-16T17:03:23;6.60;99.90
8172;DHT22;4127;47.908;10.850;2023-04-16T17:05:49;6.60;99.90
8172;DHT22;4127;47.908;10.850;2023-04-16T17:08:16;6.60;99.90
8172;DHT22;4127;47.908;10.850;2023-04-16T17:10:43;6.50;99.90
8172;DHT22;4127;47.908;10.850;2023-04-16T17:13:10;6.50;99.90
8172;DHT22;4127;47.908;10.850;2023-04-16T17:15:39;6.80;99.90